16 de agosto de 2022

Hora Código Clima Temp. Visibilidade Tecto Vento METAR/SPECI
14:30
V
30 °C 10 km+ - 150° 150° 14 kt METAR LFCR 161230Z AUTO 15014KT CAVOK 30/10 Q1009 TEMPO VRB20G30KT 4000 BECMG FEW050CB BKN090
14:00
V
31 °C 10 km+ - 160° 160° 12 kt METAR LFCR 161200Z AUTO 16012KT 130V190 CAVOK 31/11 Q1009 TEMPO TSRA BECMG 30008KT FEW050CB BKN090
13:30
V
30 °C 10 km+ - 160° 160° 13 kt METAR LFCR 161130Z AUTO 16013KT 120V180 CAVOK 30/11 Q1009 TEMPO 14015G25KT
13:00
V
29 °C 10 km+ - 140° 140° 12 kt METAR LFCR 161100Z AUTO 14012KT 110V170 CAVOK 29/12 Q1009 TEMPO 14015G25KT
12:30
V
30 °C 10 km+ - 140° 140° 11 kt METAR LFCR 161030Z AUTO 14011KT 100V170 CAVOK 30/12 Q1009 TEMPO 14015G25KT
12:00
V
29 °C 10 km+ - 130° 130° 11 kt METAR LFCR 161000Z AUTO 13011KT 100V160 CAVOK 29/12 Q1009 TEMPO 14015G25KT
11:30
V
28 °C 10 km+ - 120° 120° 11 kt METAR LFCR 160930Z AUTO 12011KT CAVOK 28/12 Q1009 TEMPO 14015G25KT
11:00
V
27 °C 10 km+ - 120° 120° 10 kt METAR LFCR 160900Z AUTO 12010KT CAVOK 27/12 Q1009 TEMPO 14015G25KT
10:30
V
25 °C 10 km+ - 120° 120° 8 kt METAR LFCR 160830Z AUTO 12008KT 090V160 CAVOK 25/13 Q1009 TEMPO 14015G25KT
10:00
V
24 °C 10 km+ - 110° 110° 6 kt METAR LFCR 160800Z AUTO 11006KT 060V140 CAVOK 24/13 Q1009 NOSIG
09:30
V
21 °C 10 km+ - 110° 110° 7 kt METAR LFCR 160730Z AUTO 11007KT CAVOK 21/13 Q1009 NOSIG
09:00
V
20 °C 10 km+ - 120° 120° 6 kt METAR LFCR 160700Z AUTO 12006KT CAVOK 20/12 Q1010 NOSIG
08:30
V
17 °C 10 km+ - 100° 100° 4 kt METAR LFCR 160630Z AUTO 10004KT 060V120 CAVOK 17/12 Q1010 NOSIG
08:00
V
16 °C 10 km+ - 110° 110° 5 kt METAR LFCR 160600Z AUTO 11005KT CAVOK 16/12 Q1010 NOSIG
07:30
V
15 °C 10 km+ - 090° 090° 3 kt METAR LFCR 160530Z AUTO 09003KT CAVOK 15/12 Q1010 NOSIG
07:00
V
15 °C 10 km+ - 100° 100° 3 kt METAR LFCR 160500Z AUTO 10003KT CAVOK 15/12 Q1010 NOSIG
06:30
V
15 °C 10 km+ - 120° 120° 4 kt METAR LFCR 160430Z AUTO 12004KT CAVOK 15/12 Q1010 NOSIG
06:00
V
15 °C 10 km+ - 080° 080° 4 kt METAR LFCR 160400Z AUTO 08004KT CAVOK 15/12 Q1010 NOSIG
05:30
V
15 °C 10 km+ - 110° 110° 4 kt METAR LFCR 160330Z AUTO 11004KT CAVOK 15/11 Q1010 NOSIG
05:00
V
15 °C 10 km+ - 110° 110° 5 kt METAR LFCR 160300Z AUTO 11005KT CAVOK 15/12 Q1010 NOSIG
04:30
V
14 °C 10 km+ - 150° 150° 3 kt METAR LFCR 160230Z AUTO 15003KT CAVOK 14/11 Q1011 NOSIG
04:00
V
15 °C 10 km+ - 110° 110° 4 kt METAR LFCR 160200Z AUTO 11004KT CAVOK 15/12 Q1011 NOSIG
03:30
V
16 °C 10 km+ - 080° 080° 4 kt METAR LFCR 160130Z AUTO 08004KT CAVOK 16/12 Q1011 NOSIG
03:00
V
16 °C 10 km+ - 120° 120° 3 kt METAR LFCR 160100Z AUTO 12003KT CAVOK 16/12 Q1011 NOSIG
02:30
V
16 °C 10 km+ - 130° 130° 3 kt METAR LFCR 160030Z AUTO 13003KT CAVOK 16/12 Q1011 NOSIG
02:00
V
15 °C 10 km+ - 130° 130° 3 kt METAR LFCR 160000Z AUTO 13003KT CAVOK 15/12 Q1011 NOSIG
01:30
V
15 °C 10 km+ - 150° 150° 2 kt METAR LFCR 152330Z AUTO 15002KT CAVOK 15/12 Q1012 NOSIG
01:00
V
15 °C 10 km+ - 170° 170° 2 kt METAR LFCR 152300Z AUTO 17002KT CAVOK 15/12 Q1012 NOSIG
00:30
V
16 °C 10 km+ - 150° 150° 2 kt METAR LFCR 152230Z AUTO 15002KT CAVOK 16/12 Q1011 NOSIG
00:00
V
16 °C 10 km+ - 180° 180° 2 kt METAR LFCR 152200Z AUTO 18002KT CAVOK 16/11 Q1011 NOSIG

15 de agosto de 2022

Hora Código Clima Temp. Visibilidade Tecto Vento METAR/SPECI
23:30
V
17 °C 10 km+ - 140° 140° 3 kt METAR LFCR 152130Z AUTO 14003KT CAVOK 17/12 Q1011 NOSIG
23:00
V
18 °C 10 km+ - 170° 170° 2 kt METAR LFCR 152100Z AUTO 17002KT CAVOK 18/12 Q1011 NOSIG
22:30
V
19 °C 10 km+ - 140° 140° 2 kt METAR LFCR 152030Z AUTO 14002KT CAVOK 19/12 Q1011 NOSIG
22:00
V
21 °C 10 km+ - 330° 330° 2 kt METAR LFCR 152000Z AUTO 33002KT CAVOK 21/12 Q1011 NOSIG
21:30
V
21 °C 10 km+ - 330° 330° 3 kt METAR LFCR 151930Z AUTO 33003KT CAVOK 21/12 Q1011 NOSIG
21:00
V
22 °C 10 km+ - 320° 320° 5 kt METAR LFCR 151900Z AUTO 32005KT CAVOK 22/12 Q1011 NOSIG
20:30
V
23 °C 10 km+ - 330° 330° 4 kt METAR LFCR 151830Z AUTO 33004KT CAVOK 23/12 Q1011 NOSIG
20:00
V
24 °C 10 km+ - 340° 340° 3 kt METAR LFCR 151800Z AUTO 34003KT 290V030 CAVOK 24/12 Q1010 NOSIG
19:30
V
24 °C 10 km+ - 300° 300° 5 kt METAR LFCR 151730Z AUTO 30005KT 260V360 CAVOK 24/12 Q1010 NOSIG
19:00
V
25 °C 10 km+ - 280° 280° 6 kt METAR LFCR 151700Z AUTO 28006KT 240V320 CAVOK 25/12 Q1010 NOSIG
18:30
V
25 °C 10 km+ - 310° 310° 5 kt METAR LFCR 151630Z AUTO 31005KT 250V360 CAVOK 25/12 Q1010 NOSIG
18:00
V
25 °C 10 km+ - 320° 320° 6 kt METAR LFCR 151600Z AUTO 32006KT 280V010 CAVOK 25/13 Q1011 NOSIG
17:30
V
25 °C 10 km+ - 330° 330° 5 kt METAR LFCR 151530Z AUTO 33005KT 250V050 CAVOK 25/13 Q1011 NOSIG
17:00
V
25 °C 10 km+ - 330° 330° 5 kt METAR LFCR 151500Z AUTO 33005KT 260V060 CAVOK 25/12 Q1011 NOSIG
16:30
V
25 °C 10 km+ - 320° 320° 9 kt METAR LFCR 151430Z AUTO 32009KT 270V010 9999 SCT048 25/13 Q1011 NOSIG
16:00
V
24 °C 10 km+ - 320° 320° 8 kt METAR LFCR 151400Z AUTO 32008KT 260V020 9999 FEW047 24/13 Q1011 NOSIG
15:30
V
24 °C 10 km+ - 310° 310° 6 kt METAR LFCR 151330Z AUTO 31006KT 250V030 9999 FEW046 24/12 Q1011 NOSIG
15:00
V
24 °C 10 km+ - Var Var 6 kt METAR LFCR 151300Z AUTO VRB06KT 9999 SCT044 24/13 Q1012 NOSIG
14:30
V
23 °C 10 km+ - Var Var 5 kt METAR LFCR 151230Z AUTO VRB05KT 9999 FEW044 SCT054 23/12 Q1012 NOSIG
14:00
V
23 °C 10 km+ 5.600 ft 260° 260° 6 kt METAR LFCR 151200Z AUTO 26006KT 210V310 9999 FEW041 SCT048 BKN056 23/13 Q1012 NOSIG
13:30
V
23 °C 10 km+ 5.000 ft Var Var 6 kt METAR LFCR 151130Z AUTO VRB06KT 9999 FEW039 BKN050 23/13 Q1012 NOSIG
13:00
V
22 °C 10 km+ 4.800 ft 290° 290° 9 kt METAR LFCR 151100Z AUTO 29009KT 250V360 9999 FEW034 SCT041 BKN048 22/13 Q1012 NOSIG
12:30
V
22 °C 10 km+ 4.400 ft 270° 270° 6 kt METAR LFCR 151030Z AUTO 27006KT 230V340 9999 SCT033 BKN044 22/13 Q1012 NOSIG
12:00
V
21 °C 10 km+ 4.300 ft 290° 290° 7 kt METAR LFCR 151000Z AUTO 29007KT 230V330 9999 FEW027 SCT032 BKN043 21/13 Q1012 NOSIG
11:30
M
20 °C 10 km+ 2.800 ft 300° 300° 6 kt METAR LFCR 150930Z AUTO 30006KT 250V350 9999 SCT022 BKN028 BKN035 20/14 Q1012 NOSIG
11:00
M
19 °C 10 km+ 2.100 ft 320° 320° 8 kt METAR LFCR 150900Z AUTO 32008KT 270V350 9999 BKN021 BKN026 BKN032 19/14 Q1012 NOSIG
10:30
V
19 °C 10 km+ - 280° 280° 6 kt METAR LFCR 150830Z AUTO 28006KT 230V320 9999 SCT019 19/14 Q1012 NOSIG
10:00
M
18 °C 10 km+ 1.400 ft 280° 280° 4 kt METAR LFCR 150800Z AUTO 28004KT 230V360 9999 BKN014 BKN019 BKN046 18/14 Q1012 BECMG SCT040
09:30
M
17 °C 10 km+ 1.000 ft 260° 260° 3 kt METAR LFCR 150730Z AUTO 26003KT 220V330 9999 BKN010 OVC046 17/15 Q1012 BECMG SCT040
09:00
M
16 °C 10 km+ 1.000 ft 230° 230° 4 kt METAR LFCR 150700Z AUTO 23004KT 9999 BKN010 BKN016 OVC045 16/15 Q1012 BECMG SCT040
08:30
M
16 °C 10 km+ 1.100 ft 210° 210° 3 kt METAR LFCR 150630Z AUTO 21003KT 9999 BKN011 BKN031 OVC046 16/15 Q1012 BECMG SCT040
08:00
V
15 °C 10 km+ 4.600 ft Var Var 2 kt METAR LFCR 150600Z AUTO VRB02KT 9999 SCT020 OVC046 15/14 Q1012 TEMPO BKN013
07:30
V
14 °C 10 km+ 4.500 ft Var 000° 0 kt METAR LFCR 150530Z AUTO 00000KT 9999 BKN045 14/13 Q1012 TEMPO BKN013
07:00
V
14 °C 10 km+ - Var 000° 0 kt METAR LFCR 150500Z AUTO 00000KT CAVOK 14/13 Q1012 TEMPO 4000 BR BKN008
06:30
V
15 °C 10 km+ 3.500 ft Var Var 2 kt METAR LFCR 150430Z AUTO VRB02KT 9999 SCT015 SCT027 BKN035 15/14 Q1012 TEMPO 4000 BR BKN008
06:00
M
15 °C 10 km+ 1.700 ft Var Var 2 kt METAR LFCR 150400Z AUTO VRB02KT 9999 OVC017 15/13 Q1012 TEMPO 4000 BR BKN008
05:30
M
15 °C 10 km+ 1.600 ft Var Var 3 kt METAR LFCR 150330Z AUTO VRB03KT 9999 BKN016 BKN021 BKN031 15/14 Q1012 TEMPO 4000 BR BKN008
05:00
V
14 °C 10 km+ 3.300 ft 180° 180° 3 kt METAR LFCR 150300Z AUTO 18003KT 9999 SCT017 BKN033 14/14 Q1012 TEMPO 4000 BR BKN008
04:30
V
15 °C 10 km+ - Var Var 2 kt METAR LFCR 150230Z AUTO VRB02KT 9999 FEW033 15/14 Q1012 TEMPO 4000 BR BKN008
04:00
V
15 °C 10 km+ - 200° 200° 3 kt METAR LFCR 150200Z AUTO 20003KT CAVOK 15/13 Q1012 TEMPO 4000 BR BKN008
03:30
V
15 °C 10 km+ - 250° 250° 2 kt METAR LFCR 150130Z AUTO 25002KT 9999 SCT045 15/14 Q1012 TEMPO 4000 BR BKN008
03:00
V
14 °C 10 km+ 4.400 ft 180° 180° 3 kt METAR LFCR 150100Z AUTO 18003KT 9999 FEW035 BKN044 14/13 Q1012 TEMPO 4000 BR BKN008
02:30
V
15 °C 10 km+ - 170° 170° 3 kt METAR LFCR 150030Z AUTO 17003KT CAVOK 15/14 Q1012 TEMPO 4000 BR BKN008
02:00
V
15 °C 10 km+ - 170° 170° 3 kt METAR LFCR 150000Z AUTO 17003KT CAVOK 15/14 Q1012 TEMPO BKN008
01:30
V
16 °C 10 km+ - 190° 190° 1 kt METAR LFCR 142330Z AUTO 19001KT CAVOK 16/14 Q1013 TEMPO BKN008
01:00
V
16 °C 10 km+ - Var Var 3 kt METAR LFCR 142300Z AUTO VRB03KT CAVOK 16/14 Q1013 NOSIG
00:30
V
16 °C 10 km+ - 190° 190° 3 kt METAR LFCR 142230Z AUTO 19003KT 9999 FEW030 SCT058 16/14 Q1013 NOSIG
00:00
V
17 °C 10 km+ 3.100 ft 200° 200° 2 kt METAR LFCR 142200Z AUTO 20002KT 9999 BKN031 17/14 Q1013 TEMPO 31012KT SCT020TCU BKN030

14 de agosto de 2022

Hora Código Clima Temp. Visibilidade Tecto Vento METAR/SPECI
23:30
V
17 °C 10 km+ - 290° 290° 3 kt METAR LFCR 142130Z AUTO 29003KT 9999 SCT031 17/14 Q1013 TEMPO SCT020TCU BKN030
23:00
V
18 °C 10 km+ 3.000 ft 310° 310° 4 kt METAR LFCR 142100Z AUTO 31004KT 9999 OVC030 18/15 Q1013 TEMPO SCT020TCU BKN030
22:30
V
17 °C 10 km+ 3.100 ft 280° 280° 3 kt METAR LFCR 142030Z AUTO 28003KT 9999 BKN031 17/14 Q1013 TEMPO SCT020TCU BKN030
22:00
V
19 °C 10 km+ - 310° 310° 5 kt METAR LFCR 142000Z AUTO 31005KT 9999 FEW023 19/15 Q1012 TEMPO SCT020TCU BKN030
21:30
M
20 °C 10 km+ 2.400 ft 290° 290° 7 kt METAR LFCR 141930Z AUTO 29007KT 9999 BKN024 BKN031 BKN038 20/15 Q1012 TEMPO SCT020TCU BKN030
21:00
V
19 °C 10 km+ - 320° 320° 5 kt METAR LFCR 141900Z AUTO 32005KT 9999 SCT037 19/16 Q1012 TEMPO SCT020TCU BKN030
20:30
V
21 °C 10 km+ - 310° 310° 11 kt METAR LFCR 141830Z AUTO 31011KT 9999 FEW045 21/16 Q1011 TEMPO SCT020TCU BKN030
20:00
V
22 °C 10 km+ 5.600 ft 300° 300° 17 kt METAR LFCR 141800Z AUTO 30017KT 9999 SCT048 BKN056 22/16 Q1011 BECMG VRB03KT
19:30
V
24 °C 10 km+ - 280° 280° 11 kt METAR LFCR 141730Z AUTO 28011KT CAVOK 24/13 Q1011 TEMPO SCT020TCU FEW055CB
19:00
V
25 °C 10 km+ - 290° 290° 10 kt METAR LFCR 141700Z AUTO 29010KT 250V320 CAVOK 25/13 Q1011 TEMPO SCT020TCU FEW055CB
18:30
V
25 °C 10 km+ - 250° 250° 8 kt METAR LFCR 141630Z AUTO 25008KT 210V300 CAVOK 25/13 Q1011 TEMPO SCT020TCU FEW055CB
18:00
V
26 °C 10 km+ - 240° 240° 7 kt METAR LFCR 141600Z AUTO 24007KT 190V280 CAVOK 26/13 Q1011 TEMPO SCT020TCU FEW055CB
17:30
V
25 °C 10 km+ - 340° 340° 5 kt METAR LFCR 141530Z AUTO 34005KT 260V070 CAVOK 25/13 Q1011 TEMPO SCT020TCU FEW055CB
17:00
V
24 °C 10 km+ - 320° 320° 9 kt METAR LFCR 141500Z AUTO 32009KT 280V360 CAVOK 24/14 Q1012 TEMPO SCT020TCU FEW055CB
16:30
V
24 °C 10 km+ - 330° 330° 9 kt METAR LFCR 141430Z AUTO 33009KT 280V360 CAVOK 24/13 Q1012 TEMPO SCT020TCU FEW055CB
16:00
V
23 °C 10 km+ - 310° 310° 11 kt METAR LFCR 141400Z AUTO 31011KT 280V340 CAVOK 23/13 Q1012 TEMPO SCT020TCU FEW055CB
15:30
V
22 °C 10 km+ - 330° 330° 9 kt METAR LFCR 141330Z AUTO 33009KT 280V360 CAVOK 22/15 Q1013 TEMPO SCT020TCU FEW055CB
15:00
V
21 °C 10 km+ - 310° 310° 6 kt METAR LFCR 141300Z AUTO 31006KT 260V350 CAVOK 21/14 Q1013 TEMPO SCT020TCU FEW055CB
Dados mais antigos

Nós e terceiros acompanhamos seu comportamento na internet em nosso site com cookies. Se você continuar, nós assumimos que você concorda com nossa política de cookies. Saiba mais